Time;durP1;ratioP1;P1;durP2;ratioP2;P2;SDS_P1;SDS_P2;PMS_P1;PMS_P2;Temp;Humidity;BMP_temperature;BMP_pressure;BME280_temperature;BME280_humidity;BME280_pressure;Samples;Min_cycle;Max_cycle;Signal;HPM_P1;HPM_P2
2022/09/06 00:01:07;;;;;;;28.90;25.77;;;14.60;99.90;;;;;;5092885;28;20049;-74
2022/09/06 00:03:34;;;;;;;29.77;26.52;;;14.50;99.90;;;;;;5080721;28;20524;-74
2022/09/06 00:06:07;;;;;;;31.73;26.88;;;14.50;99.90;;;;;;5079800;28;20044;-74
2022/09/06 00:08:36;;;;;;;29.70;25.48;;;14.50;99.90;;;;;;5073982;28;20056;-74
2022/09/06 00:11:03;;;;;;;28.67;24.40;;;14.40;99.90;;;;;;5073893;28;20049;-74
2022/09/06 00:13:31;;;;;;;30.80;25.70;;;14.40;99.90;;;;;;5085038;28;20067;-74
2022/09/06 00:16:05;;;;;;;29.00;25.88;;;14.40;99.90;;;;;;5095358;28;20048;-74
2022/09/06 00:18:32;;;;;;;29.58;26.42;;;14.40;99.90;;;;;;5095011;28;20093;-74
2022/09/06 00:21:00;;;;;;;31.10;25.65;;;14.40;99.90;;;;;;5094964;28;20498;-74
2022/09/06 00:23:27;;;;;;;29.67;26.58;;;14.40;99.90;;;;;;5093495;28;20036;-74
2022/09/06 00:26:03;;;;;;;29.65;26.42;;;14.40;99.90;;;;;;5079657;28;20508;-74
2022/09/06 00:28:31;;;;;;;;;;;14.40;99.90;;;;;;5073817;28;20056;-74
2022/09/06 00:30:58;;;;;;;28.15;25.15;;;14.30;99.90;;;;;;5073454;28;19985;-74
2022/09/06 00:33:26;;;;;;;32.55;26.20;;;14.30;99.90;;;;;;5074094;28;20495;-74
2022/09/06 00:36:00;;;;;;;33.95;26.70;;;14.20;99.90;;;;;;5073032;28;20419;-74
2022/09/06 00:38:28;;;;;;;29.50;25.80;;;14.20;99.90;;;;;;5094678;28;20079;-74
2022/09/06 00:40:56;;;;;;;27.88;24.98;;;14.20;99.90;;;;;;5091684;28;20044;-74
2022/09/06 00:43:25;;;;;;;29.40;25.83;;;14.20;99.90;;;;;;5088657;28;20056;-74
2022/09/06 00:45:53;;;;;;;28.30;23.90;;;14.20;99.90;;;;;;5092957;28;20070;-74
2022/09/06 00:48:21;;;;;;;31.75;23.80;;;14.20;99.90;;;;;;5091430;28;20131;-74
2022/09/06 00:50:52;;;;;;;25.13;22.42;;;14.20;99.90;;;;;;5094462;28;20058;-74
2022/09/06 00:53:20;;;;;;;28.25;25.13;;;14.20;99.90;;;;;;5093936;28;20544;-74
2022/09/06 00:55:47;;;;;;;35.17;29.55;;;14.20;99.90;;;;;;5087289;28;20048;-74
2022/09/06 00:58:15;;;;;;;28.23;25.50;;;14.20;99.90;;;;;;5087029;28;20040;-74
2022/09/06 01:00:44;;;;;;;34.17;30.02;;;14.10;99.90;;;;;;5093058;28;20479;-74
2022/09/06 01:03:12;;;;;;;30.13;25.27;;;14.10;99.90;;;;;;5093631;28;20043;-74
2022/09/06 01:05:47;;;;;;;32.72;27.90;;;14.10;99.90;;;;;;5094025;28;20040;-74
2022/09/06 01:08:28;;;;;;;35.05;25.55;;;14.10;99.90;;;;;;5092643;28;20044;-74
2022/09/06 01:11:20;;;;;;;28.83;25.65;;;14.00;99.90;;;;;;5092800;28;20044;-74
2022/09/06 01:13:53;;;;;;;30.27;25.45;;;14.00;99.90;;;;;;5088624;28;20043;-74
2022/09/06 01:16:30;;;;;;;28.20;25.05;;;14.00;99.90;;;;;;5090823;28;20041;-73
2022/09/06 01:19:18;;;;;;;28.23;25.23;;;14.00;99.90;;;;;;5094317;28;20442;-73
2022/09/06 01:21:51;;;;;;;28.65;24.90;;;14.00;99.90;;;;;;5087527;28;20419;-73
2022/09/06 01:24:43;;;;;;;32.20;25.77;;;13.90;99.90;;;;;;5090862;28;20048;-73
2022/09/06 01:27:53;;;;;;;34.30;26.83;;;13.90;99.90;;;;;;5072363;28;20052;-73
2022/09/06 01:30:21;;;;;;;31.17;25.13;;;13.90;99.90;;;;;;5072185;28;20058;-73
2022/09/06 01:32:59;;;;;;;27.75;24.13;;;13.80;99.90;;;;;;5071909;28;20040;-73
2022/09/06 01:35:31;;;;;;;28.73;25.63;;;13.80;99.90;;;;;;5071864;28;20037;-72
2022/09/06 01:38:00;;;;;;;27.33;24.58;;;13.80;99.90;;;;;;5073323;28;20056;-74
2022/09/06 01:40:28;;;;;;;28.77;25.88;;;13.90;99.90;;;;;;5072070;28;20403;-74
2022/09/06 01:42:58;;;;;;;27.67;24.92;;;13.80;99.90;;;;;;5091272;28;20048;-73
2022/09/06 01:45:35;;;;;;;30.48;25.25;;;13.80;99.90;;;;;;5091275;28;20040;-74
2022/09/06 01:48:11;;;;;;;33.45;26.50;;;13.80;99.90;;;;;;5092355;28;20071;-73
2022/09/06 01:51:05;;;;;;;33.78;25.90;;;13.70;99.90;;;;;;5093236;28;20123;-73
2022/09/06 01:53:51;;;;;;;32.92;26.40;;;13.60;99.90;;;;;;5071592;28;20059;-74
2022/09/06 01:56:30;;;;;;;29.58;26.50;;;13.60;99.90;;;;;;5074119;28;20047;-74
2022/09/06 01:59:30;;;;;;;31.90;26.10;;;13.60;99.90;;;;;;5073092;28;20599;-74
2022/09/06 02:02:03;;;;;;;29.33;26.15;;;13.60;99.90;;;;;;5088589;28;20051;-75
2022/09/06 02:04:36;;;;;;;29.17;25.75;;;13.60;99.90;;;;;;5088868;28;20043;-75
2022/09/06 02:07:10;;;;;;;29.65;24.83;;;13.60;99.90;;;;;;5078617;28;20048;-75
2022/09/06 02:09:40;;;;;;;27.52;22.67;;;13.60;99.90;;;;;;5093302;28;20407;-75
2022/09/06 02:12:12;;;;;;;25.83;22.77;;;13.50;99.90;;;;;;5093107;28;20503;-75
2022/09/06 02:14:45;;;;;;;26.25;23.45;;;13.50;99.90;;;;;;5088896;28;20127;-75
2022/09/06 02:17:17;;;;;;;28.27;24.17;;;13.50;99.90;;;;;;5071724;28;20055;-75
2022/09/06 02:19:48;;;;;;;31.98;25.70;;;13.40;99.90;;;;;;5085084;28;20411;-75
2022/09/06 02:22:20;;;;;;;32.05;28.42;;;13.40;99.90;;;;;;5082943;28;20397;-75
2022/09/06 02:24:51;;;;;;;35.65;29.77;;;13.50;99.90;;;;;;5075501;28;20043;-75
2022/09/06 02:27:19;;;;;;;31.58;28.27;;;13.50;99.90;;;;;;5096388;28;20040;-75
2022/09/06 02:29:48;;;;;;;30.92;27.60;;;13.50;99.90;;;;;;5095717;28;20055;-75
2022/09/06 02:32:19;;;;;;;32.03;28.27;;;13.50;99.90;;;;;;5097044;28;20051;-74
2022/09/06 02:34:46;;;;;;;33.75;30.25;;;13.50;99.90;;;;;;5097142;28;20419;-74
2022/09/06 02:37:16;;;;;;;34.03;30.45;;;13.50;99.90;;;;;;5095755;28;20044;-74
2022/09/06 02:39:43;;;;;;;33.65;29.75;;;13.50;99.90;;;;;;5096876;28;20041;-74
2022/09/06 02:42:13;;;;;;;34.22;30.35;;;13.50;99.90;;;;;;5096766;28;20040;-74
2022/09/06 02:44:40;;;;;;;35.05;28.05;;;13.50;99.90;;;;;;5096391;28;20486;-74
2022/09/06 02:47:09;;;;;;;32.72;28.90;;;13.50;99.90;;;;;;5096741;28;20040;-74
2022/09/06 02:49:37;;;;;;;34.55;30.45;;;13.50;99.90;;;;;;5094929;28;20131;-74
2022/09/06 02:52:04;;;;;;;31.67;28.38;;;13.50;99.90;;;;;;5095345;28;20410;-74
2022/09/06 02:54:32;;;;;;;31.00;27.67;;;13.50;99.90;;;;;;5096480;28;20391;-74
2022/09/06 02:56:59;;;;;;;29.67;26.27;;;13.40;99.90;;;;;;5088808;28;20043;-74
2022/09/06 02:59:26;;;;;;;30.60;27.38;;;13.30;99.90;;;;;;5087178;28;20040;-75
2022/09/06 03:01:54;;;;;;;32.25;29.02;;;13.30;99.90;;;;;;5095432;28;20040;-75
2022/09/06 03:04:22;;;;;;;32.25;28.80;;;13.20;99.90;;;;;;5096247;28;20040;-76
2022/09/06 03:06:50;;;;;;;29.83;26.65;;;13.20;99.90;;;;;;5096374;28;20105;-75
2022/09/06 03:09:17;;;;;;;30.98;27.65;;;13.10;99.90;;;;;;5095036;28;20048;-75
2022/09/06 03:11:44;;;;;;;32.63;29.13;;;13.10;99.90;;;;;;5091129;28;20495;-75
2022/09/06 03:14:12;;;;;;;31.30;27.48;;;13.10;99.90;;;;;;5088029;28;20484;-75
2022/09/06 03:16:39;;;;;;;32.10;28.55;;;13.20;99.90;;;;;;5094878;28;20438;-75
2022/09/06 03:19:06;;;;;;;33.35;28.83;;;13.20;99.90;;;;;;5077280;28;20048;-75
2022/09/06 03:21:35;;;;;;;31.48;28.00;;;13.20;99.90;;;;;;5085871;28;20048;-76
2022/09/06 03:24:03;;;;;;;31.38;27.92;;;13.20;99.90;;;;;;5073998;28;20048;-75
2022/09/06 03:26:30;;;;;;;32.05;26.55;;;13.20;99.90;;;;;;5090086;28;20044;-76
2022/09/06 03:28:58;;;;;;;33.83;27.48;;;13.10;99.90;;;;;;5096173;28;20089;-76
2022/09/06 03:31:25;;;;;;;32.10;26.85;;;13.10;99.90;;;;;;5089887;28;20131;-76
2022/09/06 03:33:52;;;;;;;31.25;26.75;;;13.10;99.90;;;;;;5085159;28;20040;-76
2022/09/06 03:36:21;;;;;;;31.35;27.77;;;13.00;99.90;;;;;;5074252;28;20045;-75
2022/09/06 03:38:49;;;;;;;32.47;28.40;;;13.00;99.90;;;;;;5110465;28;20041;-75
2022/09/06 03:41:17;;;;;;;35.65;30.23;;;13.00;99.90;;;;;;5110042;28;20044;-75
2022/09/06 03:43:44;;;;;;;33.70;29.30;;;13.00;99.90;;;;;;5095394;28;20123;-75
2022/09/06 03:46:12;;;;;;;36.30;32.03;;;13.00;99.90;;;;;;5084442;28;20040;-75
2022/09/06 03:48:39;;;;;;;35.67;30.58;;;13.00;99.90;;;;;;5095012;28;20044;-75
2022/09/06 03:51:06;;;;;;;37.53;32.38;;;13.10;99.90;;;;;;5080680;28;20048;-74
2022/09/06 03:53:34;;;;;;;40.38;31.30;;;13.10;99.90;;;;;;5075558;28;20052;-74
2022/09/06 03:56:03;;;;;;;38.85;32.63;;;13.00;99.90;;;;;;5075577;28;20048;-74
2022/09/06 03:58:32;;;;;;;63.67;32.13;;;13.10;99.90;;;;;;5075305;28;20071;-74
2022/09/06 04:01:06;;;;;;;38.25;33.25;;;13.00;99.90;;;;;;5075207;28;20385;-75
2022/09/06 04:03:34;;;;;;;42.85;33.83;;;13.00;99.90;;;;;;5074834;28;20123;-75
2022/09/06 04:06:01;;;;;;;37.67;33.58;;;13.00;99.90;;;;;;5074950;28;20040;-75
2022/09/06 04:08:29;;;;;;;43.47;33.38;;;13.00;99.90;;;;;;5073743;28;20496;-75
2022/09/06 04:10:57;;;;;;;37.70;32.47;;;13.00;99.90;;;;;;5073669;28;20056;-75
2022/09/06 04:13:27;;;;;;;42.63;32.85;;;13.00;99.90;;;;;;5073497;28;20061;-75
2022/09/06 04:15:55;;;;;;;39.03;33.85;;;13.00;99.90;;;;;;5076129;28;20052;-74
2022/09/06 04:18:23;;;;;;;37.75;33.28;;;12.90;99.90;;;;;;5078313;28;20044;-74
2022/09/06 04:20:51;;;;;;;40.70;34.30;;;12.90;99.90;;;;;;5073403;28;20057;-74
2022/09/06 04:23:19;;;;;;;40.25;33.88;;;12.90;99.90;;;;;;5072951;28;20052;-75
2022/09/06 04:25:47;;;;;;;43.53;33.35;;;12.90;99.90;;;;;;5073155;28;20124;-75
2022/09/06 04:28:17;;;;;;;42.45;34.03;;;12.90;99.90;;;;;;5074638;28;20097;-75
2022/09/06 04:30:46;;;;;;;38.40;33.08;;;12.90;99.90;;;;;;5074337;28;20157;-75
2022/09/06 04:33:13;;;;;;;38.20;31.80;;;12.90;99.90;;;;;;5072802;28;20051;-74
2022/09/06 04:35:40;;;;;;;33.67;30.10;;;12.90;99.90;;;;;;5073256;28;20044;-74
2022/09/06 04:38:08;;;;;;;33.90;30.15;;;12.90;99.90;;;;;;5074325;28;20052;-74
2022/09/06 04:40:36;;;;;;;32.70;29.20;;;13.00;99.90;;;;;;5073432;28;20052;-74
2022/09/06 04:43:03;;;;;;;31.73;28.50;;;13.10;99.90;;;;;;5094036;28;20036;-74
2022/09/06 04:45:30;;;;;;;32.90;28.90;;;13.10;99.90;;;;;;5094095;28;20044;-74
2022/09/06 04:47:59;;;;;;;33.08;27.70;;;13.20;99.90;;;;;;5093049;28;20040;-74
2022/09/06 04:50:27;;;;;;;31.67;28.27;;;13.20;99.90;;;;;;5094594;28;20403;-75
2022/09/06 04:53:05;;;;;;;32.22;28.10;;;13.20;99.90;;;;;;5094044;28;20055;-74
2022/09/06 04:55:32;;;;;;;31.75;28.52;;;13.20;99.90;;;;;;5094356;28;20123;-74
2022/09/06 04:58:00;;;;;;;33.95;28.65;;;13.20;99.90;;;;;;5092946;28;20048;-75
2022/09/06 05:00:28;;;;;;;49.10;30.98;;;13.20;99.90;;;;;;5092811;28;20074;-75
2022/09/06 05:02:55;;;;;;;38.00;29.55;;;13.30;99.90;;;;;;5093890;28;20453;-75
2022/09/06 05:05:24;;;;;;;36.55;28.95;;;13.40;99.90;;;;;;5092678;28;20044;-75
2022/09/06 05:07:52;;;;;;;43.15;31.52;;;13.50;99.90;;;;;;5094171;28;20044;-75
2022/09/06 05:10:20;;;;;;;70.40;31.05;;;13.60;99.90;;;;;;5093739;28;20063;-75
2022/09/06 05:12:49;;;;;;;35.70;26.10;;;13.80;99.90;;;;;;5093698;28;20043;-76
2022/09/06 05:15:17;;;;;;;45.15;27.75;;;13.80;99.90;;;;;;5093700;28;20043;-74
2022/09/06 05:17:45;;;;;;;31.52;26.73;;;13.80;99.90;;;;;;5093906;28;20051;-74
2022/09/06 05:20:12;;;;;;;39.15;28.73;;;13.80;99.90;;;;;;5092305;28;20055;-75
2022/09/06 05:22:41;;;;;;;36.53;28.70;;;13.90;99.90;;;;;;5093272;28;20432;-75
2022/09/06 05:25:10;;;;;;;32.72;27.05;;;14.00;99.90;;;;;;5092428;28;20048;-75
2022/09/06 05:27:37;;;;;;;37.33;26.88;;;14.10;99.90;;;;;;5091998;28;20048;-73
2022/09/06 05:30:05;;;;;;;33.88;26.40;;;14.30;99.90;;;;;;5093241;28;20040;-74
2022/09/06 05:32:33;;;;;;;42.38;32.30;;;14.50;99.90;;;;;;5093076;28;20406;-74
2022/09/06 05:35:00;;;;;;;27.58;24.65;;;14.70;99.90;;;;;;5093314;28;20506;-73
2022/09/06 05:37:27;;;;;;;35.15;24.42;;;14.90;99.90;;;;;;5093026;28;20040;-72
2022/09/06 05:39:58;;;;;;;30.02;24.80;;;15.10;99.90;;;;;;5089855;28;20055;-72
2022/09/06 05:42:26;;;;;;;29.23;25.95;;;15.20;99.90;;;;;;5087221;28;20048;-73
2022/09/06 05:44:53;;;;;;;30.38;23.90;;;15.40;99.90;;;;;;5088024;28;20042;-73
2022/09/06 05:47:21;;;;;;;38.42;25.45;;;15.70;99.90;;;;;;5092810;28;20044;-73
2022/09/06 05:49:48;;;;;;;95.35;39.40;;;16.00;99.90;;;;;;5092786;28;20040;-73
2022/09/06 05:52:17;;;;;;;67.53;32.60;;;16.20;99.90;;;;;;5092617;28;20146;-73
2022/09/06 05:54:44;;;;;;;53.05;27.83;;;16.40;99.90;;;;;;5093020;28;20048;-73
2022/09/06 05:57:13;;;;;;;54.15;27.63;;;16.80;99.90;;;;;;5092956;28;20047;-73
2022/09/06 05:59:40;;;;;;;60.10;29.60;;;16.90;99.90;;;;;;5091464;28;20059;-73
2022/09/06 06:02:07;;;;;;;69.07;26.88;;;17.10;99.90;;;;;;5092766;28;20507;-73
2022/09/06 06:04:35;;;;;;;28.25;19.65;;;17.30;99.90;;;;;;5093117;28;20050;-72
2022/09/06 06:07:02;;;;;;;67.75;28.08;;;17.40;99.90;;;;;;5093898;28;20039;-73
2022/09/06 06:09:30;;;;;;;27.23;20.65;;;17.60;99.90;;;;;;5093176;28;20043;-74
2022/09/06 06:11:57;;;;;;;44.72;23.15;;;17.70;99.90;;;;;;5093433;28;20462;-73
2022/09/06 06:14:26;;;;;;;29.08;19.17;;;18.00;99.90;;;;;;5093411;28;20056;-73
2022/09/06 06:16:53;;;;;;;28.05;20.80;;;18.40;99.90;;;;;;5093746;28;20035;-73
2022/09/06 06:19:21;;;;;;;34.92;24.10;;;18.60;99.90;;;;;;5093329;28;20048;-73
2022/09/06 06:21:48;;;;;;;28.67;21.27;;;18.80;99.90;;;;;;5093053;28;20047;-74
2022/09/06 06:24:15;;;;;;;27.73;20.10;;;19.10;99.90;;;;;;5092778;28;20047;-73
2022/09/06 06:26:43;;;;;;;33.58;23.42;;;19.10;99.90;;;;;;5092891;28;20407;-74
2022/09/06 06:29:10;;;;;;;28.70;20.60;;;19.20;99.90;;;;;;5093054;28;20101;-73
2022/09/06 06:31:39;;;;;;;28.88;20.63;;;19.50;99.90;;;;;;5092947;28;20052;-74
2022/09/06 06:34:06;;;;;;;23.63;20.23;;;19.70;99.90;;;;;;5092729;28;20117;-74
2022/09/06 06:36:35;;;;;;;28.58;20.33;;;19.80;99.90;;;;;;5092962;28;20044;-73
2022/09/06 06:39:04;;;;;;;31.50;23.13;;;20.00;99.90;;;;;;5093015;28;20043;-74
2022/09/06 06:41:32;;;;;;;30.13;20.98;;;20.00;99.90;;;;;;5092540;28;20050;-74
2022/09/06 06:44:01;;;;;;;26.58;21.35;;;20.00;99.90;;;;;;5093455;28;20048;-74
2022/09/06 06:46:31;;;;;;;25.38;21.05;;;20.10;99.90;;;;;;5094250;28;20036;-73
2022/09/06 06:49:00;;;;;;;23.40;20.90;;;20.30;99.90;;;;;;5093478;28;20395;-73
2022/09/06 06:51:29;;;;;;;25.17;21.35;;;20.40;99.90;;;;;;5093500;28;20044;-73
2022/09/06 06:53:57;;;;;;;29.90;21.20;;;20.40;99.90;;;;;;5094292;28;20480;-73
2022/09/06 06:56:26;;;;;;;27.38;22.77;;;20.40;99.90;;;;;;5094918;28;20043;-73
2022/09/06 06:58:56;;;;;;;27.10;22.08;;;20.20;99.90;;;;;;5093930;28;20055;-74
2022/09/06 07:01:25;;;;;;;29.15;22.33;;;20.10;99.90;;;;;;5092919;28;20094;-75
2022/09/06 07:03:53;;;;;;;25.55;22.77;;;20.10;99.90;;;;;;5092223;28;20044;-74
2022/09/06 07:06:22;;;;;;;29.30;23.92;;;20.10;99.90;;;;;;5092525;28;20048;-75
2022/09/06 07:08:49;;;;;;;29.40;23.30;;;20.20;99.90;;;;;;5092534;28;20454;-75
2022/09/06 07:11:18;;;;;;;27.25;23.15;;;20.20;99.90;;;;;;5092126;28;20044;-74
2022/09/06 07:13:45;;;;;;;28.52;22.45;;;20.30;99.90;;;;;;5094652;28;20036;-75
2022/09/06 07:16:15;;;;;;;31.50;24.05;;;20.40;99.90;;;;;;5096340;28;20479;-74
2022/09/06 07:18:44;;;;;;;25.45;22.52;;;20.60;99.90;;;;;;5096181;28;20399;-74
2022/09/06 07:21:13;;;;;;;27.50;24.60;;;20.70;99.90;;;;;;5096079;28;20054;-72
2022/09/06 07:23:42;;;;;;;28.63;23.38;;;21.00;99.90;;;;;;5095579;28;20067;-73
2022/09/06 07:26:14;;;;;;;26.55;23.70;;;21.20;99.90;;;;;;5095873;28;20039;-73
2022/09/06 07:28:42;;;;;;;29.23;23.40;;;21.20;99.90;;;;;;5095648;28;20044;-74
2022/09/06 07:31:09;;;;;;;26.23;23.63;;;21.30;14.40;;;;;;5096088;28;20048;-73
2022/09/06 07:33:38;;;;;;;26.65;23.67;;;21.40;1.00;;;;;;5095831;28;20047;-73
2022/09/06 07:36:07;;;;;;;25.52;23.08;;;21.50;1.00;;;;;;5094731;28;20044;-73
2022/09/06 07:38:35;;;;;;;26.38;23.63;;;21.70;1.00;;;;;;5095010;28;20064;-73
2022/09/06 07:41:07;;;;;;;25.67;22.98;;;21.80;99.90;;;;;;5096305;28;20036;-73
2022/09/06 07:43:35;;;;;;;25.67;23.02;;;21.90;99.90;;;;;;5095815;28;20048;-74
2022/09/06 07:46:04;;;;;;;25.60;22.90;;;21.70;99.90;;;;;;5101062;28;20036;-73
2022/09/06 07:48:33;;;;;;;30.27;27.48;;;21.90;99.90;;;;;;5109638;28;20036;-73
2022/09/06 07:51:05;;;;;;;25.13;22.45;;;22.00;99.90;;;;;;5106760;28;20105;-73
2022/09/06 07:53:33;;;;;;;24.25;21.58;;;22.00;99.90;;;;;;5110443;28;20052;-73
2022/09/06 07:56:01;;;;;;;26.38;22.10;;;22.20;1.00;;;;;;5106035;28;20048;-73
2022/09/06 07:58:31;;;;;;;23.48;21.08;;;22.40;1.00;;;;;;5094677;28;20052;-73
2022/09/06 08:01:29;;;;;;;24.20;21.83;;;22.70;99.90;;;;;;5094536;28;20391;-73
2022/09/06 08:03:57;;;;;;;24.33;21.90;;;22.90;99.90;;;;;;5088295;28;20041;-73
2022/09/06 08:06:26;;;;;;;23.20;20.77;;;23.00;1.00;;;;;;5095301;28;20747;-73
2022/09/06 08:08:54;;;;;;;24.95;22.55;;;23.00;99.90;;;;;;5095362;28;20040;-74
2022/09/06 08:11:24;;;;;;;21.95;19.85;;;23.20;1.00;;;;;;5094881;28;20412;-74
2022/09/06 08:13:54;;;;;;;26.85;21.08;;;23.30;1.00;;;;;;5093907;28;20105;-73
2022/09/06 08:16:23;;;;;;;24.75;20.75;;;23.30;1.00;;;;;;5095106;28;20040;-74
2022/09/06 08:18:53;;;;;;;22.92;20.52;;;23.40;99.90;;;;;;5095334;28;20399;-74
2022/09/06 08:21:22;;;;;;;23.10;20.83;;;23.40;99.90;;;;;;5094798;28;20051;-74
2022/09/06 08:23:52;;;;;;;23.33;20.88;;;23.40;24.60;;;;;;5094372;28;20120;-74
2022/09/06 08:26:21;;;;;;;26.30;21.50;;;23.60;1.00;;;;;;5094954;28;20040;-74
2022/09/06 08:29:01;;;;;;;25.60;21.52;;;23.60;1.00;;;;;;5095035;28;20039;-74
2022/09/06 08:31:29;;;;;;;25.73;23.13;;;23.60;99.90;;;;;;5095359;28;20039;-73
2022/09/06 08:33:57;;;;;;;23.95;21.00;;;23.80;1.00;;;;;;5094643;28;20446;-73
2022/09/06 08:36:28;;;;;;;20.75;18.67;;;23.90;99.90;;;;;;5094869;28;20040;-74
2022/09/06 08:38:55;;;;;;;23.05;20.75;;;23.90;1.00;;;;;;5094781;28;20507;-74
2022/09/06 08:41:29;;;;;;;24.98;20.67;;;23.90;99.90;;;;;;5094815;28;20478;-74
2022/09/06 08:44:02;;;;;;;22.73;20.67;;;24.10;99.90;;;;;;5093430;28;20396;-74
2022/09/06 08:46:37;;;;;;;23.40;20.10;;;24.20;99.90;;;;;;5093327;28;20044;-74
2022/09/06 08:49:05;;;;;;;23.00;20.70;;;24.30;1.00;;;;;;5095009;28;20406;-74
2022/09/06 08:51:55;;;;;;;23.55;21.13;;;24.30;1.00;;;;;;5097662;28;20124;-73
2022/09/06 08:54:32;;;;;;;24.02;21.40;;;24.30;99.90;;;;;;5099287;28;20048;-74
2022/09/06 08:57:09;;;;;;;35.88;28.80;;;24.20;99.90;;;;;;5095267;28;20042;-74
2022/09/06 08:59:40;;;;;;;23.33;21.05;;;24.40;1.00;;;;;;5096774;28;20502;-75
2022/09/06 09:02:13;;;;;;;26.23;20.52;;;24.50;1.00;;;;;;5096447;28;20052;-76
2022/09/06 09:04:44;;;;;;;22.90;20.70;;;24.70;99.90;;;;;;5094693;28;20063;-74
2022/09/06 09:07:31;;;;;;;21.15;19.15;;;24.90;99.90;;;;;;5094733;28;20087;-75
2022/09/06 09:10:02;;;;;;;21.92;19.80;;;24.90;1.00;;;;;;5094108;28;20036;-73
2022/09/06 09:12:32;;;;;;;31.50;28.13;;;25.10;1.00;;;;;;5092823;28;20395;-72
2022/09/06 09:15:07;;;;;;;21.48;19.42;;;25.10;1.00;;;;;;5094497;28;20123;-75
2022/09/06 09:17:36;;;;;;;22.27;20.08;;;25.10;1.00;;;;;;5094626;28;20032;-74
2022/09/06 09:20:07;;;;;;;24.75;20.85;;;25.10;1.00;;;;;;5094431;28;20105;-74
2022/09/06 09:22:35;;;;;;;27.92;20.30;;;25.20;99.90;;;;;;5094354;28;20073;-75
2022/09/06 09:25:04;;;;;;;20.98;18.83;;;25.20;99.90;;;;;;5094185;28;20476;-75
2022/09/06 09:27:32;;;;;;;18.02;16.38;;;25.20;99.90;;;;;;5094148;28;20040;-74
2022/09/06 09:30:05;;;;;;;20.98;18.75;;;25.20;1.00;;;;;;5092777;28;20477;-74
2022/09/06 09:32:34;;;;;;;21.70;19.55;;;25.30;20.40;;;;;;5092437;28;20052;-74
2022/09/06 09:35:24;;;;;;;20.65;18.55;;;25.40;1.00;;;;;;5093383;28;20040;-74
2022/09/06 09:38:04;;;;;;;20.15;18.15;;;25.50;99.90;;;;;;5093770;28;20060;-74
2022/09/06 09:40:37;;;;;;;20.60;18.45;;;25.60;1.00;;;;;;5093706;28;20065;-74
2022/09/06 09:43:20;;;;;;;31.40;28.05;;;25.50;10.60;;;;;;5071552;28;20052;-75
2022/09/06 09:46:08;;;;;;;20.90;19.00;;;25.60;49.10;;;;;;5073639;28;20388;-75
2022/09/06 09:48:36;;;;;;;18.35;16.55;;;25.50;1.00;;;;;;5073643;28;20044;-75
2022/09/06 09:51:21;;;;;;;17.08;15.57;;;25.40;1.00;;;;;;5073902;28;20089;-75
2022/09/06 09:53:54;;;;;;;17.65;15.95;;;25.40;99.90;;;;;;5073822;28;20060;-74
2022/09/06 09:56:29;;;;;;;16.90;15.30;;;25.40;99.90;;;;;;5073233;28;20048;-75
2022/09/06 09:58:58;;;;;;;40.53;33.10;;;25.60;1.00;;;;;;5073319;28;20503;-75
2022/09/06 10:01:30;;;;;;;28.75;22.48;;;25.60;1.00;;;;;;5073153;28;20040;-75
2022/09/06 10:04:04;;;;;;;19.90;17.90;;;25.70;1.00;;;;;;5073085;28;20040;-75
2022/09/06 10:06:32;;;;;;;18.50;13.20;;;25.80;1.00;;;;;;5072862;28;20037;-75
2022/09/06 10:09:12;;;;;;;18.50;16.63;;;25.80;3.60;;;;;;5073077;28;20048;-75
2022/09/06 10:11:48;;;;;;;16.17;14.68;;;25.90;99.90;;;;;;5072889;28;20041;-75
2022/09/06 10:14:24;;;;;;;;;;;26.00;1.00;;;;;;5073065;28;20048;-75
2022/09/06 10:16:53;;;;;;;16.00;14.32;;;26.00;1.00;;;;;;5072817;28;20299;-75
2022/09/06 10:19:40;;;;;;;19.58;16.50;;;26.10;1.00;;;;;;5072670;28;20044;-75
2022/09/06 10:22:20;;;;;;;13.30;12.07;;;26.20;99.90;;;;;;5073072;28;20052;-75
2022/09/06 10:25:05;;;;;;;14.82;13.32;;;26.20;99.90;;;;;;5072542;28;20090;-74
2022/09/06 10:27:33;;;;;;;13.45;10.50;;;26.20;1.00;;;;;;5073011;28;20460;-74
2022/09/06 10:30:05;;;;;;;12.52;11.32;;;26.10;99.90;;;;;;5071123;28;20044;-75
2022/09/06 10:32:41;;;;;;;15.77;12.77;;;26.00;99.90;;;;;;5072635;28;20043;-75
2022/09/06 10:35:29;;;;;;;16.25;14.63;;;26.00;99.90;;;;;;5072851;28;20051;-75
2022/09/06 10:38:18;;;;;;;14.52;13.23;;;26.10;1.00;;;;;;5072989;28;20036;-75
2022/09/06 10:41:00;;;;;;;19.88;11.85;;;26.10;99.90;;;;;;5074400;28;20045;-75
2022/09/06 10:43:37;;;;;;;13.48;12.10;;;26.10;1.00;;;;;;5094543;28;20487;-75
2022/09/06 10:46:14;;;;;;;12.73;11.45;;;26.20;1.00;;;;;;5092327;28;20096;-75
2022/09/06 10:48:45;;;;;;;20.13;11.45;;;26.30;1.00;;;;;;5097158;28;20040;-75
2022/09/06 10:51:22;;;;;;;13.93;12.63;;;26.40;1.00;;;;;;5097257;28;20044;-75
2022/09/06 10:53:53;;;;;;;13.30;12.00;;;26.20;99.90;;;;;;5095118;28;20083;-75
2022/09/06 10:56:25;;;;;;;12.80;11.60;;;26.40;99.90;;;;;;5097936;28;20062;-75
2022/09/06 10:58:59;;;;;;;10.98;10.00;;;26.40;1.00;;;;;;5089517;28;20229;-73
2022/09/06 11:01:33;;;;;;;9.27;8.48;;;26.40;99.90;;;;;;5092653;28;20481;-75
2022/09/06 11:04:08;;;;;;;8.93;8.02;;;26.40;1.00;;;;;;5087821;28;20138;-75
2022/09/06 11:06:43;;;;;;;9.57;8.68;;;26.30;1.00;;;;;;5090333;28;20089;-74
2022/09/06 11:09:18;;;;;;;11.95;8.85;;;26.40;1.00;;;;;;5093894;28;20047;-74
2022/09/06 11:11:51;;;;;;;11.60;10.40;;;26.40;1.00;;;;;;5093164;28;20381;-74
2022/09/06 11:14:21;;;;;;;11.40;10.32;;;26.40;1.00;;;;;;5094893;28;20054;-73
2022/09/06 11:16:53;;;;;;;8.93;8.18;;;26.40;1.00;;;;;;5094210;28;20453;-75
2022/09/06 11:19:25;;;;;;;10.05;9.15;;;26.40;1.00;;;;;;5095411;28;20518;-75
2022/09/06 11:22:27;;;;;;;12.82;10.25;;;26.50;1.00;;;;;;5096721;28;20134;-75
2022/09/06 11:25:31;;;;;;;9.88;8.98;;;26.60;1.00;;;;;;5093632;28;20165;-75
2022/09/06 11:28:01;;;;;;;8.85;8.05;;;26.60;1.00;;;;;;5094044;28;20056;-75
2022/09/06 11:30:30;;;;;;;11.35;10.23;;;26.50;1.00;;;;;;5088589;28;20039;-75
2022/09/06 11:33:11;;;;;;;8.13;7.40;;;26.40;1.00;;;;;;5095873;28;20072;-76
2022/09/06 11:35:43;;;;;;;9.85;8.95;;;26.50;1.00;;;;;;5095703;28;20044;-75
2022/09/06 11:38:22;;;;;;;9.40;8.48;;;26.40;1.00;;;;;;5095900;28;20036;-75
2022/09/06 11:40:57;;;;;;;10.43;9.50;;;26.60;1.00;;;;;;5077231;28;20063;-75
2022/09/06 11:43:46;;;;;;;10.60;9.60;;;26.70;1.00;;;;;;5095676;28;20039;-76
2022/09/06 11:46:47;;;;;;;11.07;9.98;;;26.70;1.00;;;;;;5094043;28;20048;-76
2022/09/06 11:49:30;;;;;;;11.57;10.57;;;26.60;1.00;;;;;;5095637;28;20043;-76
2022/09/06 11:51:59;;;;;;;11.10;10.10;;;26.70;1.00;;;;;;5095233;28;20083;-76
2022/09/06 11:54:34;;;;;;;11.25;10.15;;;26.70;1.00;;;;;;5092056;28;20047;-76
2022/09/06 11:57:10;;;;;;;10.85;9.70;;;26.60;1.00;;;;;;5087017;28;20032;-76
2022/09/06 11:59:49;;;;;;;10.65;9.75;;;26.60;1.00;;;;;;5086579;28;20032;-76
2022/09/06 12:02:32;;;;;;;9.45;8.55;;;26.60;1.00;;;;;;5082283;28;20052;-76
2022/09/06 12:05:21;;;;;;;10.10;9.15;;;26.80;1.00;;;;;;5079157;28;20135;-75
2022/09/06 12:08:28;;;;;;;9.77;8.68;;;26.90;1.00;;;;;;5074372;28;20099;-75
2022/09/06 12:11:03;;;;;;;9.50;8.07;;;26.90;1.00;;;;;;5074844;28;20445;-74
2022/09/06 12:13:38;;;;;;;9.43;8.18;;;26.90;1.00;;;;;;5074958;28;20044;-75
2022/09/06 12:16:06;;;;;;;14.63;9.68;;;26.90;1.00;;;;;;5074984;28;20044;-74
2022/09/06 12:19:03;;;;;;;8.25;7.53;;;26.80;1.00;;;;;;5074744;28;20028;-75
2022/09/06 12:21:40;;;;;;;9.00;8.10;;;26.70;1.00;;;;;;5074120;28;20058;-75
2022/09/06 12:24:08;;;;;;;8.80;7.90;;;26.70;1.00;;;;;;5092422;28;20089;-76
2022/09/06 12:26:50;;;;;;;8.65;7.57;;;26.70;1.00;;;;;;5095505;28;20502;-75
2022/09/06 12:29:23;;;;;;;8.88;8.07;;;26.90;1.00;;;;;;5095393;28;20486;-77
2022/09/06 12:31:53;;;;;;;9.18;8.27;;;26.90;1.00;;;;;;5095164;28;20441;-75
2022/09/06 12:34:24;;;;;;;10.48;9.57;;;26.90;1.00;;;;;;5094741;28;20055;-75
2022/09/06 12:36:57;;;;;;;11.35;8.98;;;26.90;1.00;;;;;;5095359;28;20385;-76
2022/09/06 12:39:25;;;;;;;10.45;9.35;;;27.10;1.00;;;;;;5093524;28;20048;-76
2022/09/06 12:41:57;;;;;;;8.85;8.05;;;27.10;1.00;;;;;;5093674;28;20048;-75
2022/09/06 12:44:33;;;;;;;11.52;9.43;;;27.10;1.00;;;;;;5094735;28;20040;-75
2022/09/06 12:47:07;;;;;;;11.63;10.45;;;27.00;1.00;;;;;;5093415;28;20048;-75
2022/09/06 12:49:34;;;;;;;13.52;11.70;;;27.00;1.00;;;;;;5095070;28;20051;-76
2022/09/06 12:52:11;;;;;;;10.90;9.80;;;26.90;1.00;;;;;;5094696;28;20063;-77
2022/09/06 12:54:47;;;;;;;15.52;14.13;;;26.90;1.00;;;;;;5094844;28;20058;-76
2022/09/06 12:57:19;;;;;;;10.93;9.82;;;26.90;1.00;;;;;;5093339;28;20076;-76